Time;durP1;ratioP1;P1;durP2;ratioP2;P2;SDS_P1;SDS_P2;PMS_P1;PMS_P2;Temp;Humidity;BMP_temperature;BMP_pressure;BME280_temperature;BME280_humidity;BME280_pressure;Samples;Min_cycle;Max_cycle;Signal;HPM_P1;HPM_P2
2021/10/03 00:02:15;;;;;;;;;;;18.30;90.60;;;;;;5056675;28;20175;-60
2021/10/03 00:04:42;;;;;;;;;;;18.30;90.60;;;;;;5062195;28;20043;-61
2021/10/03 00:07:08;;;;;;;;;;;18.20;90.70;;;;;;5063622;28;20271;-65
2021/10/03 00:09:34;;;;;;;;;;;18.20;90.70;;;;;;5066232;28;20343;-62
2021/10/03 00:12:00;;;;;;;;;;;18.30;90.70;;;;;;5065282;28;19962;-62
2021/10/03 00:14:25;;;;;;;;;;;18.20;90.70;;;;;;5067252;28;19963;-65
2021/10/03 00:16:54;;;;;;;;;;;18.20;90.70;;;;;;5065437;28;20079;-59
2021/10/03 00:19:21;;;;;;;;;;;18.30;90.70;;;;;;5067402;28;19916;-61
2021/10/03 00:21:47;;;;;;;;;;;18.20;90.70;;;;;;5065498;28;19913;-60
2021/10/03 00:24:12;;;;;;;;;;;18.30;90.80;;;;;;5066397;28;19980;-61
2021/10/03 00:26:38;;;;;;;;;;;18.30;90.90;;;;;;5067716;28;20284;-62
2021/10/03 00:29:04;;;;;;;;;;;18.20;90.70;;;;;;5066579;28;19979;-62
2021/10/03 00:33:57;;;;;;;;;;;18.20;90.60;;;;;;5054451;28;20007;-61
2021/10/03 00:36:23;;;;;;;;;;;18.30;90.70;;;;;;5048268;28;20397;-61
2021/10/03 00:38:48;;;;;;;;;;;18.20;90.60;;;;;;5045717;28;19963;-60
2021/10/03 00:41:14;;;;;;;;;;;18.30;90.60;;;;;;5053234;28;19912;-61
2021/10/03 00:43:40;;;;;;;;;;;18.20;90.60;;;;;;5029554;28;19924;-61
2021/10/03 00:46:06;;;;;;;;;;;18.30;90.60;;;;;;5050724;28;20337;-61
2021/10/03 00:48:31;;;;;;;;;;;18.20;90.50;;;;;;5053027;28;19923;-60
2021/10/03 00:50:57;;;;;;;;;;;18.30;90.50;;;;;;5044803;28;19913;-62
2021/10/03 00:53:22;;;;;;;;;;;18.30;90.50;;;;;;5050152;28;19963;-63
2021/10/03 00:55:48;;;;;;;;;;;18.30;90.50;;;;;;5046203;28;20163;-61
2021/10/03 00:58:13;;;;;;;;;;;18.20;90.50;;;;;;5046598;28;19932;-61
2021/10/03 01:00:40;;;;;;;;;;;18.20;90.50;;;;;;5045212;28;19948;-59
2021/10/03 01:03:06;;;;;;;;;;;18.20;90.50;;;;;;5051491;28;19912;-61
2021/10/03 01:05:33;;;;;;;;;;;18.20;90.50;;;;;;5046817;28;19980;-60
2021/10/03 01:07:58;;;;;;;;;;;18.20;90.50;;;;;;5053542;28;20391;-62
2021/10/03 01:10:25;;;;;;;;;;;18.20;90.50;;;;;;5046857;28;19913;-62
2021/10/03 01:13:02;;;;;;;;;;;18.20;90.50;;;;;;5044088;28;19948;-62
2021/10/03 01:15:28;;;;;;;;;;;18.10;90.40;;;;;;5029656;28;19913;-61
2021/10/03 01:17:54;;;;;;;;;;;18.10;90.40;;;;;;5047915;28;19912;-62
2021/10/03 01:20:19;;;;;;;;;;;18.20;90.40;;;;;;5050726;28;20358;-58
2021/10/03 01:22:45;;;;;;;;;;;18.10;90.40;;;;;;5043780;28;21033;-60
2021/10/03 01:25:10;;;;;;;;;;;18.10;90.40;;;;;;5045147;28;19939;-62
2021/10/03 01:27:37;;;;;;;;;;;18.10;90.40;;;;;;5051215;28;19916;-59
2021/10/03 01:30:05;;;;;;;;;;;18.10;90.40;;;;;;5044597;28;19921;-62
2021/10/03 01:32:30;;;;;;;;;;;18.10;90.30;;;;;;5057784;28;19920;-61
2021/10/03 01:34:56;;;;;;;;;;;18.10;90.30;;;;;;5070334;28;19920;-58
2021/10/03 01:37:23;;;;;;;;;;;18.10;90.20;;;;;;5075190;28;19938;-62
2021/10/03 01:39:49;;;;;;;;;;;18.10;90.20;;;;;;5066246;28;19981;-61
2021/10/03 01:42:14;;;;;;;;;;;18.10;90.10;;;;;;5066333;28;19935;-62
2021/10/03 01:44:40;;;;;;;;;;;18.20;90.10;;;;;;5066773;28;20376;-60
2021/10/03 01:47:05;;;;;;;;;;;18.10;90.10;;;;;;5078259;28;20340;-60
2021/10/03 01:49:31;;;;;;;;;;;18.10;90.10;;;;;;5070788;28;20387;-60
2021/10/03 01:51:56;;;;;;;;;;;18.10;90.00;;;;;;5072726;28;20308;-59
2021/10/03 01:54:22;;;;;;;;;;;18.10;89.90;;;;;;5065454;28;19943;-61
2021/10/03 01:56:47;;;;;;;;;;;18.20;90.00;;;;;;5066869;28;20265;-62
2021/10/03 01:59:13;;;;;;;;;;;18.20;90.00;;;;;;5075511;28;19916;-60
2021/10/03 02:01:44;;;;;;;;;;;18.20;89.90;;;;;;5065946;28;19931;-61
2021/10/03 02:04:14;;;;;;;;;;;18.20;89.70;;;;;;5065227;28;19920;-60
2021/10/03 02:06:58;;;;;;;;;;;18.20;89.50;;;;;;5063637;28;19912;-61
2021/10/03 02:09:24;;;;;;;;;;;18.20;89.20;;;;;;5068879;28;19959;-62
2021/10/03 02:12:00;;;;;;;;;;;18.30;89.00;;;;;;5065886;28;19920;-62
2021/10/03 02:14:30;;;;;;;;;;;18.40;89.00;;;;;;5065283;28;19912;-61
2021/10/03 02:16:57;;;;;;;;;;;18.40;88.80;;;;;;5065627;28;20377;-62
2021/10/03 02:19:22;;;;;;;;;;;18.40;88.80;;;;;;5066976;28;20141;-59
2021/10/03 02:21:48;;;;;;;;;;;18.40;88.50;;;;;;5067609;28;19932;-62
2021/10/03 02:24:15;;;;;;;;;;;18.40;88.30;;;;;;5073127;28;19912;-61
2021/10/03 02:26:41;;;;;;;;;;;18.50;88.20;;;;;;5073390;28;20253;-61
2021/10/03 02:29:07;;;;;;;;;;;18.50;88.00;;;;;;5066541;28;19916;-61
2021/10/03 02:31:32;;;;;;;;;;;18.50;87.80;;;;;;5075210;28;19920;-62
2021/10/03 02:33:58;;;;;;;;;;;18.50;87.60;;;;;;5080057;28;19923;-61
2021/10/03 02:36:23;;;;;;;;;;;18.50;87.60;;;;;;5079277;28;19912;-62
2021/10/03 02:38:49;;;;;;;;;;;18.60;87.30;;;;;;5072328;28;20262;-61
2021/10/03 02:41:15;;;;;;;;;;;18.60;87.40;;;;;;5068718;28;19981;-61
2021/10/03 02:43:41;;;;;;;;;;;18.60;87.40;;;;;;5065953;28;20430;-62
2021/10/03 02:46:07;;;;;;;;;;;18.60;87.20;;;;;;5067241;28;19916;-61
2021/10/03 02:48:36;;;;;;;;;;;18.60;87.20;;;;;;5065387;28;20384;-60
2021/10/03 02:51:02;;;;;;;;;;;18.60;86.70;;;;;;5063813;28;19916;-58
2021/10/03 02:53:27;;;;;;;;;;;18.70;86.80;;;;;;5065774;28;20276;-61
2021/10/03 02:55:53;;;;;;;;;;;18.70;86.80;;;;;;5067510;28;19916;-62
2021/10/03 02:58:19;;;;;;;;;;;18.70;86.90;;;;;;5064016;28;19991;-61
2021/10/03 03:00:45;;;;;;;;;;;18.70;86.70;;;;;;5071493;28;19978;-60
2021/10/03 03:03:10;;;;;;;;;;;18.70;86.50;;;;;;5073148;28;19912;-60
2021/10/03 03:05:36;;;;;;;;;;;18.70;86.30;;;;;;5067033;28;19918;-62
2021/10/03 03:08:02;;;;;;;;;;;18.70;86.50;;;;;;5065140;28;19940;-62
2021/10/03 03:10:28;;;;;;;;;;;18.70;86.40;;;;;;5066046;28;19920;-61
2021/10/03 03:12:53;;;;;;;;;;;18.70;86.30;;;;;;5077605;28;19916;-61
2021/10/03 03:15:19;;;;;;;;;;;18.70;86.50;;;;;;5060237;28;19912;-61
2021/10/03 03:17:44;;;;;;;;;;;18.70;86.50;;;;;;5065665;28;20008;-62
2021/10/03 03:20:10;;;;;;;;;;;18.70;86.60;;;;;;5064046;28;20007;-61
2021/10/03 03:22:36;;;;;;;;;;;18.70;86.60;;;;;;5078273;28;20331;-62
2021/10/03 03:25:04;;;;;;;;;;;18.60;86.70;;;;;;5074355;28;19918;-61
2021/10/03 03:27:29;;;;;;;;;;;18.60;86.80;;;;;;5067255;28;20430;-60
2021/10/03 03:29:55;;;;;;;;;;;18.60;87.10;;;;;;5067011;28;19967;-59
2021/10/03 03:32:20;;;;;;;;;;;18.50;87.20;;;;;;5069999;28;19924;-61
2021/10/03 03:34:46;;;;;;;;;;;18.50;87.30;;;;;;5069981;28;19963;-62
2021/10/03 03:37:11;;;;;;;;;;;18.50;87.40;;;;;;5074751;28;20278;-58
2021/10/03 03:39:37;;;;;;;;;;;18.50;87.50;;;;;;5066610;28;19923;-62
2021/10/03 03:42:02;;;;;;;;;;;18.50;87.50;;;;;;5067615;28;19962;-60
2021/10/03 03:44:28;;;;;;;;;;;18.50;87.60;;;;;;5069087;28;20246;-60
2021/10/03 03:46:54;;;;;;;;;;;18.50;87.40;;;;;;5067977;28;20355;-61
2021/10/03 03:49:19;;;;;;;;;;;18.60;87.30;;;;;;5066936;28;20039;-59
2021/10/03 03:51:45;;;;;;;;;;;18.70;87.00;;;;;;5071605;28;20236;-61
2021/10/03 03:54:10;;;;;;;;;;;18.80;86.90;;;;;;5067250;28;19920;-61
2021/10/03 03:56:36;;;;;;;;;;;18.90;86.60;;;;;;5067184;28;20394;-58
2021/10/03 03:59:01;;;;;;;;;;;19.00;86.40;;;;;;5068248;28;19915;-61
2021/10/03 04:01:27;;;;;;;;;;;19.00;86.10;;;;;;5072907;28;19916;-61
2021/10/03 04:03:53;;;;;;;;;;;19.10;86.00;;;;;;5067858;28;19917;-61
2021/10/03 04:06:18;;;;;;;;;;;19.10;85.50;;;;;;5066076;28;19916;-60
2021/10/03 04:08:43;;;;;;;;;;;19.10;85.50;;;;;;5070924;28;19919;-60
2021/10/03 04:11:11;;;;;;;;;;;19.20;85.50;;;;;;5074955;28;20002;-61
2021/10/03 04:13:37;;;;;;;;;;;19.30;85.20;;;;;;5068113;28;19917;-60
2021/10/03 04:16:02;;;;;;;;;;;19.30;85.10;;;;;;5070561;28;20374;-61
2021/10/03 04:18:27;;;;;;;;;;;19.30;84.80;;;;;;5079644;28;20122;-62
2021/10/03 04:20:53;;;;;;;;;;;19.30;84.90;;;;;;5068286;28;19987;-60
2021/10/03 04:23:18;;;;;;;;;;;19.30;84.70;;;;;;5072717;28;19923;-59
2021/10/03 04:25:44;;;;;;;;;;;19.30;84.70;;;;;;5070205;28;19920;-60
2021/10/03 04:28:10;;;;;;;;;;;19.30;84.40;;;;;;5076040;28;19912;-60
2021/10/03 04:30:36;;;;;;;;;;;19.40;84.00;;;;;;5070954;28;19912;-60
2021/10/03 04:33:01;;;;;;;;;;;19.40;84.00;;;;;;5071389;28;19924;-59
2021/10/03 04:35:26;;;;;;;;;;;19.40;84.00;;;;;;5075862;28;19966;-60
2021/10/03 04:37:52;;;;;;;;;;;19.40;83.70;;;;;;5067799;28;20210;-61
2021/10/03 04:40:18;;;;;;;;;;;19.40;83.90;;;;;;5071618;28;19909;-60
2021/10/03 04:42:45;;;;;;;;;;;19.40;84.00;;;;;;5079395;28;19923;-58
2021/10/03 04:45:10;;;;;;;;;;;19.40;84.10;;;;;;5076894;28;19912;-62
2021/10/03 04:47:36;;;;;;;;;;;19.40;83.70;;;;;;5068614;28;19912;-62
2021/10/03 04:50:02;;;;;;;;;;;19.40;83.80;;;;;;5067357;28;19909;-59
2021/10/03 04:52:27;;;;;;;;;;;19.40;83.90;;;;;;5070096;28;19978;-59
2021/10/03 04:54:53;;;;;;;;;;;19.40;83.80;;;;;;5067401;28;19913;-61
2021/10/03 04:57:19;;;;;;;;;;;19.50;83.70;;;;;;5070165;28;19918;-60
2021/10/03 04:59:45;;;;;;;;;;;19.50;83.60;;;;;;5071832;28;19913;-62
2021/10/03 05:02:11;;;;;;;;;;;19.50;83.60;;;;;;5068448;28;19916;-61
2021/10/03 05:04:36;;;;;;;;;;;19.50;83.50;;;;;;5072479;28;19913;-61
2021/10/03 05:07:02;;;;;;;;;;;19.50;83.50;;;;;;5069455;28;20404;-59
2021/10/03 05:09:27;;;;;;;;;;;19.50;83.30;;;;;;5072050;28;19916;-63
2021/10/03 05:11:53;;;;;;;;;;;19.60;83.40;;;;;;5073782;28;19967;-60
2021/10/03 05:14:18;;;;;;;;;;;19.60;83.20;;;;;;5066911;28;19916;-61
2021/10/03 05:16:44;;;;;;;;;;;19.60;83.40;;;;;;5074749;28;19968;-59
2021/10/03 05:19:10;;;;;;;;;;;19.60;83.40;;;;;;5077445;28;19919;-63
2021/10/03 05:21:35;;;;;;;;;;;19.60;83.40;;;;;;5066495;28;20372;-62
2021/10/03 05:24:01;;;;;;;;;;;19.60;83.40;;;;;;5070498;28;20378;-62
2021/10/03 05:26:26;;;;;;;;;;;19.60;83.50;;;;;;5069778;28;19952;-60
2021/10/03 05:28:52;;;;;;;;;;;19.50;83.40;;;;;;5065534;28;20015;-62
2021/10/03 05:31:17;;;;;;;;;;;19.50;83.40;;;;;;5065522;28;19921;-63
2021/10/03 05:33:43;;;;;;;;;;;19.50;83.50;;;;;;5063647;28;20207;-61
2021/10/03 05:36:08;;;;;;;;;;;19.50;83.20;;;;;;5066527;28;19982;-62
2021/10/03 05:38:34;;;;;;;;;;;19.60;83.40;;;;;;5065590;28;19979;-62
2021/10/03 05:40:59;;;;;;;;;;;19.60;83.40;;;;;;5067785;28;19926;-60
2021/10/03 05:43:25;;;;;;;;;;;19.50;83.40;;;;;;5073131;28;19992;-60
2021/10/03 05:45:50;;;;;;;;;;;19.60;83.20;;;;;;5076666;28;20270;-59
2021/10/03 05:48:16;;;;;;;;;;;19.60;83.00;;;;;;5072884;28;19993;-61
2021/10/03 05:50:41;;;;;;;;;;;19.60;82.70;;;;;;5066993;28;19969;-62
2021/10/03 05:53:08;;;;;;;;;;;19.60;82.60;;;;;;5070240;28;19920;-58
2021/10/03 05:55:33;;;;;;;;;;;19.60;82.90;;;;;;5066955;28;19924;-62
2021/10/03 05:57:59;;;;;;;;;;;19.60;82.80;;;;;;5064457;28;19988;-62
2021/10/03 06:00:24;;;;;;;;;;;19.60;82.60;;;;;;5065553;28;20015;-60
2021/10/03 06:02:50;;;;;;;;;;;19.60;82.30;;;;;;5070154;28;19969;-61
2021/10/03 06:05:15;;;;;;;;;;;19.60;82.40;;;;;;5066504;28;19955;-62
2021/10/03 06:07:41;;;;;;;;;;;19.60;82.20;;;;;;5069062;28;19916;-58
2021/10/03 06:10:07;;;;;;;;;;;19.60;82.50;;;;;;5065203;28;19916;-62
2021/10/03 06:12:33;;;;;;;;;;;19.60;82.30;;;;;;5066312;28;19959;-61
2021/10/03 06:14:58;;;;;;;;;;;19.60;82.10;;;;;;5064396;28;20348;-61
2021/10/03 06:17:24;;;;;;;;;;;19.60;81.90;;;;;;5069342;28;19916;-61
2021/10/03 06:19:49;;;;;;;;;;;19.70;82.00;;;;;;5066260;28;19966;-59
2021/10/03 06:22:15;;;;;;;;;;;19.70;82.00;;;;;;5068475;28;19912;-62
2021/10/03 06:24:40;;;;;;;;;;;19.70;81.90;;;;;;5066118;28;19916;-62
2021/10/03 06:27:06;;;;;;;;;;;19.70;81.80;;;;;;5076228;28;19999;-59
2021/10/03 06:29:31;;;;;;;;;;;19.70;81.60;;;;;;5070535;28;20672;-62
2021/10/03 06:31:57;;;;;;;;;;;19.70;81.60;;;;;;5070344;28;19917;-56
2021/10/03 06:34:24;;;;;;;;;;;19.70;81.60;;;;;;5064389;28;21388;-61
2021/10/03 06:36:49;;;;;;;;;;;19.60;81.70;;;;;;5063141;28;19922;-59
2021/10/03 06:39:16;;;;;;;;;;;19.60;81.80;;;;;;5064423;28;19913;-57
2021/10/03 06:41:41;;;;;;;;;;;19.60;81.50;;;;;;5066881;28;20269;-56
2021/10/03 06:44:07;;;;;;;;;;;19.60;81.50;;;;;;5064777;28;19930;-60
2021/10/03 06:46:32;;;;;;;;;;;19.70;81.70;;;;;;5064022;28;20491;-53
2021/10/03 06:48:58;;;;;;;;;;;19.60;81.20;;;;;;5069459;28;19908;-59
2021/10/03 06:51:24;;;;;;;;;;;19.60;81.30;;;;;;5069902;28;19932;-59
2021/10/03 06:53:50;;;;;;;;;;;19.70;81.10;;;;;;5063783;28;20334;-60
2021/10/03 06:56:15;;;;;;;;;;;19.70;81.10;;;;;;5069528;28;19916;-59
2021/10/03 06:58:41;;;;;;;;;;;19.70;80.80;;;;;;5067414;28;20293;-63
2021/10/03 07:01:06;;;;;;;;;;;19.70;80.50;;;;;;5073780;28;19969;-58
2021/10/03 07:03:32;;;;;;;;;;;19.70;80.60;;;;;;5077589;28;19943;-58
2021/10/03 07:05:57;;;;;;;;;;;19.70;80.00;;;;;;5070785;28;20917;-57
2021/10/03 07:08:23;;;;;;;;;;;19.70;80.30;;;;;;5065425;28;19920;-60
2021/10/03 07:10:48;;;;;;;;;;;19.70;80.10;;;;;;5068063;28;19908;-56
2021/10/03 07:13:13;;;;;;;;;;;19.70;80.20;;;;;;5069889;28;19924;-56
2021/10/03 07:15:39;;;;;;;;;;;19.70;80.10;;;;;;5071370;28;19912;-58
2021/10/03 07:18:04;;;;;;;;;;;19.70;80.20;;;;;;5074492;28;19923;-57
2021/10/03 07:20:30;;;;;;;;;;;19.70;79.80;;;;;;5068208;28;20015;-59
2021/10/03 07:22:55;;;;;;;;;;;19.70;80.00;;;;;;5066459;28;20357;-63
2021/10/03 07:25:21;;;;;;;;;;;19.70;79.70;;;;;;5068373;28;19986;-59
2021/10/03 07:27:46;;;;;;;;;;;19.70;80.00;;;;;;5068296;28;19958;-59
2021/10/03 07:30:12;;;;;;;;;;;19.70;80.00;;;;;;5072576;28;20224;-59
2021/10/03 07:32:38;;;;;;;;;;;19.60;79.70;;;;;;5075202;28;19919;-64
2021/10/03 07:35:04;;;;;;;;;;;19.60;79.90;;;;;;5072375;28;19916;-56
2021/10/03 07:37:30;;;;;;;;;;;19.60;79.90;;;;;;5079134;28;20376;-60
2021/10/03 07:39:56;;;;;;;;;;;19.60;79.80;;;;;;5076772;28;19993;-57
2021/10/03 07:42:21;;;;;;;;;;;19.50;80.00;;;;;;5068189;28;19920;-59
2021/10/03 07:44:46;;;;;;;;;;;19.50;80.10;;;;;;5068618;28;19908;-59
2021/10/03 07:47:12;;;;;;;;;;;19.40;80.30;;;;;;5074871;28;19916;-61
2021/10/03 07:49:37;;;;;;;;;;;19.30;80.70;;;;;;5079452;28;19991;-62
2021/10/03 07:52:03;;;;;;;;;;;19.30;80.80;;;;;;5074549;28;20312;-58
2021/10/03 07:54:28;;;;;;;;;;;19.20;81.00;;;;;;5068077;28;20049;-60
2021/10/03 07:56:54;;;;;;;;;;;19.20;81.30;;;;;;5068554;28;20386;-60
2021/10/03 07:59:19;;;;;;;;;;;19.10;81.50;;;;;;5069213;28;20191;-58
2021/10/03 08:01:45;;;;;;;;;;;19.10;81.40;;;;;;5066489;28;19928;-62
2021/10/03 08:04:10;;;;;;;;;;;19.10;81.40;;;;;;5068540;28;19917;-61
2021/10/03 08:06:36;;;;;;;;;;;19.10;81.30;;;;;;5068592;28;19918;-60
2021/10/03 08:09:02;;;;;;;;;;;19.10;81.60;;;;;;5068192;28;19916;-59
2021/10/03 08:11:27;;;;;;;;;;;19.10;81.30;;;;;;5080727;28;19916;-59
2021/10/03 08:13:53;;;;;;;;;;;19.10;81.40;;;;;;5078241;28;19929;-61
2021/10/03 08:16:19;;;;;;;;;;;19.00;81.20;;;;;;5075426;28;19912;-57
2021/10/03 08:18:45;;;;;;;;;;;19.10;81.40;;;;;;5067773;28;19977;-61
2021/10/03 08:21:10;;;;;;;;;;;19.10;81.60;;;;;;5068797;28;19916;-57
2021/10/03 08:23:36;;;;;;;;;;;19.00;81.40;;;;;;5068251;28;19913;-58
2021/10/03 08:26:01;;;;;;;;;;;19.10;81.20;;;;;;5069176;28;19917;-61
2021/10/03 08:28:27;;;;;;;;;;;19.10;81.30;;;;;;5069774;28;19939;-58
2021/10/03 08:30:52;;;;;;;;;;;19.10;81.30;;;;;;5070411;28;20013;-60
2021/10/03 08:33:18;;;;;;;;;;;19.10;81.40;;;;;;5079100;28;19962;-60
2021/10/03 08:35:43;;;;;;;;;;;19.10;81.20;;;;;;5067776;28;19912;-63
2021/10/03 08:38:09;;;;;;;;;;;19.10;81.40;;;;;;5067825;28;20265;-57
2021/10/03 08:40:35;;;;;;;;;;;19.10;81.20;;;;;;5073407;28;20319;-62
2021/10/03 08:43:02;;;;;;;;;;;19.20;81.40;;;;;;5067085;28;19951;-62
2021/10/03 08:45:27;;;;;;;;;;;19.20;81.30;;;;;;5073297;28;19916;-56
2021/10/03 08:47:53;;;;;;;;;;;19.30;81.30;;;;;;5070959;28;19920;-64
2021/10/03 08:50:18;;;;;;;;;;;19.30;81.20;;;;;;5064374;28;19923;-60
2021/10/03 08:52:45;;;;;;;;;;;19.20;81.30;;;;;;5071691;28;19916;-64
2021/10/03 08:55:11;;;;;;;;;;;19.20;81.70;;;;;;5070690;28;19940;-62
2021/10/03 08:57:37;;;;;;;;;;;19.20;81.50;;;;;;5076484;28;19951;-64
2021/10/03 09:00:08;;;;;;;;;;;19.20;81.60;;;;;;5072102;28;19920;-62
2021/10/03 09:02:52;;;;;;;;;;;19.20;81.60;;;;;;5068926;28;19982;-61
2021/10/03 09:05:18;;;;;;;;;;;19.20;81.50;;;;;;5066952;28;19992;-61
2021/10/03 09:07:59;;;;;;;;;;;19.30;81.20;;;;;;5068543;28;20299;-60
2021/10/03 09:10:26;;;;;;;;;;;19.30;80.30;;;;;;5065898;28;19912;-60
2021/10/03 09:12:54;;;;;;;;;;;19.40;80.20;;;;;;5070671;28;19956;-62
2021/10/03 09:15:20;;;;;;;;;;;19.50;80.20;;;;;;5070122;28;19959;-61
2021/10/03 09:17:49;;;;;;;;;;;19.50;80.50;;;;;;5066711;28;20258;-61
2021/10/03 09:20:16;;;;;;;;;;;19.50;80.70;;;;;;5064898;28;20226;-60
2021/10/03 09:22:56;;;;;;;;;;;19.50;80.70;;;;;;5066688;28;19916;-61
2021/10/03 09:25:30;;;;;;;;;;;19.60;80.00;;;;;;5067025;28;19928;-61
2021/10/03 09:27:56;;;;;;;;;;;19.70;79.40;;;;;;5066619;28;20353;-61
2021/10/03 09:30:21;;;;;;;;;;;19.80;79.00;;;;;;5071480;28;19924;-61
2021/10/03 09:32:57;;;;;;;;;;;19.90;78.70;;;;;;5070107;28;20317;-63
2021/10/03 09:35:25;;;;;;;;;;;19.90;77.50;;;;;;5073337;28;19945;-60
2021/10/03 09:37:50;;;;;;;;;;;20.00;77.80;;;;;;5062792;28;19923;-62
2021/10/03 09:40:16;;;;;;;;;;;20.10;77.10;;;;;;5070695;28;19912;-59
2021/10/03 09:42:52;;;;;;;;;;;20.20;75.40;;;;;;5066325;28;19912;-61
2021/10/03 09:45:21;;;;;;;;;;;20.20;76.30;;;;;;5083106;28;19925;-62
2021/10/03 09:47:57;;;;;;;;;;;20.30;75.10;;;;;;5076031;28;19920;-61
2021/10/03 09:50:23;;;;;;;;;;;20.40;75.50;;;;;;5078586;28;19935;-62
2021/10/03 09:52:49;;;;;;;;;;;20.40;74.40;;;;;;5070963;28;20288;-63
2021/10/03 09:55:15;;;;;;;;;;;20.40;74.50;;;;;;5074125;28;19912;-59
2021/10/03 09:57:41;;;;;;;;;;;20.50;73.60;;;;;;5066979;28;19916;-63
2021/10/03 10:00:07;;;;;;;;;;;20.50;73.50;;;;;;5068310;28;20039;-59
2021/10/03 10:02:33;;;;;;;;;;;20.60;73.50;;;;;;5068471;28;19912;-62
2021/10/03 10:04:59;;;;;;;;;;;20.60;72.50;;;;;;5066915;28;19912;-61
2021/10/03 10:07:25;;;;;;;;;;;20.70;73.10;;;;;;5065678;28;19969;-63
2021/10/03 10:09:50;;;;;;;;;;;20.70;72.60;;;;;;5065180;28;19916;-61
2021/10/03 10:12:17;;;;;;;;;;;20.70;73.00;;;;;;5069842;28;19916;-60
2021/10/03 10:14:45;;;;;;;;;;;20.80;72.90;;;;;;5065320;28;20009;-60
2021/10/03 10:17:26;;;;;;;;;;;20.80;72.70;;;;;;5065526;28;19974;-60
2021/10/03 10:19:55;;;;;;;;;;;20.80;72.00;;;;;;5078163;28;19908;-59
2021/10/03 10:22:29;;;;;;;;;;;20.80;72.20;;;;;;5065778;28;19939;-60
2021/10/03 10:24:55;;;;;;;;;;;20.80;72.30;;;;;;5066415;28;20257;-58
2021/10/03 10:27:21;;;;;;;;;;;20.90;71.60;;;;;;5071118;28;19962;-58
2021/10/03 10:29:52;;;;;;;;;;;20.90;72.00;;;;;;5065796;28;20416;-61
2021/10/03 10:32:18;;;;;;;;;;;20.90;71.80;;;;;;5068248;28;20321;-60
2021/10/03 10:35:02;;;;;;;;;;;21.00;71.50;;;;;;5066789;28;19958;-61
2021/10/03 10:37:46;;;;;;;;;;;21.00;71.20;;;;;;5066914;28;19960;-63
2021/10/03 10:40:20;;;;;;;;;;;21.00;71.30;;;;;;5065273;28;19917;-63
2021/10/03 10:42:47;;;;;;;;;;;21.00;71.00;;;;;;5078311;28;19920;-62
2021/10/03 10:45:27;;;;;;;;;;;21.10;71.10;;;;;;5070136;28;20616;-63
2021/10/03 10:48:14;;;;;;;;;;;21.10;70.30;;;;;;5065602;28;19955;-62
2021/10/03 10:50:48;;;;;;;;;;;21.20;70.10;;;;;;5061664;28;20273;-62
2021/10/03 10:53:18;;;;;;;;;;;21.30;69.90;;;;;;5066174;28;19924;-60
2021/10/03 10:56:02;;;;;;;;;;;21.30;69.90;;;;;;5064361;28;20285;-61
2021/10/03 10:58:27;;;;;;;;;;;21.40;69.80;;;;;;5065237;28;19988;-61
2021/10/03 11:00:58;;;;;;;;;;;21.40;70.20;;;;;;5074192;28;20410;-63
2021/10/03 11:03:44;;;;;;;;;;;21.50;70.30;;;;;;5079634;28;20350;-62
2021/10/03 11:06:10;;;;;;;;;;;21.50;70.40;;;;;;5054400;28;19912;-60
2021/10/03 11:08:55;;;;;;;;;;;21.50;70.00;;;;;;5047400;28;20281;-63
2021/10/03 11:11:21;;;;;;;;;;;21.60;70.30;;;;;;5044581;28;19923;-61
2021/10/03 11:13:46;;;;;;;;;;;21.60;70.30;;;;;;5041182;28;19920;-63
2021/10/03 11:16:25;;;;;;;;;;;21.70;69.20;;;;;;5050157;28;20090;-62
2021/10/03 11:18:52;;;;;;;;;;;21.70;68.70;;;;;;5048529;28;19962;-62
2021/10/03 11:21:22;;;;;;;;;;;21.70;68.70;;;;;;5045056;28;19923;-63
2021/10/03 11:23:48;;;;;;;;;;;21.70;69.10;;;;;;5044878;28;19986;-63
2021/10/03 11:26:13;;;;;;;;;;;21.70;68.30;;;;;;5041291;28;22310;-61
2021/10/03 11:28:48;;;;;;;;;;;21.70;68.80;;;;;;5042177;28;20034;-62
2021/10/03 11:31:28;;;;;;;;;;;21.70;69.20;;;;;;5046851;28;19925;-60
2021/10/03 11:33:54;;;;;;;;;;;21.70;69.00;;;;;;5049129;28;19924;-64
2021/10/03 11:36:19;;;;;;;;;;;21.70;68.60;;;;;;5059384;28;19923;-61
2021/10/03 11:38:49;;;;;;;;;;;21.80;68.40;;;;;;5053652;28;20577;-62
2021/10/03 11:41:14;;;;;;;;;;;21.80;68.70;;;;;;5056325;28;20405;-63
2021/10/03 11:43:40;;;;;;;;;;;21.80;69.10;;;;;;5039836;28;19921;-60
2021/10/03 11:46:06;;;;;;;;;;;21.70;68.90;;;;;;5062077;28;20359;-63
2021/10/03 11:48:31;;;;;;;;;;;21.70;68.40;;;;;;5045721;28;20018;-62
2021/10/03 11:50:57;;;;;;;;;;;21.70;68.70;;;;;;5058001;28;20013;-60
2021/10/03 11:53:25;;;;;;;;;;;21.80;68.80;;;;;;5074484;28;20233;-60
2021/10/03 11:56:11;;;;;;;;;;;21.70;68.40;;;;;;5061725;28;19962;-61
2021/10/03 11:58:37;;;;;;;;;;;21.70;67.90;;;;;;5060099;28;19917;-59
2021/10/03 12:01:05;;;;;;;;;;;21.70;68.00;;;;;;5057773;28;19920;-62
2021/10/03 12:03:32;;;;;;;;;;;21.80;67.90;;;;;;5051975;28;19920;-61
2021/10/03 12:05:58;;;;;;;;;;;21.80;67.80;;;;;;5047852;28;19966;-62
2021/10/03 12:08:25;;;;;;;;;;;21.80;67.50;;;;;;5053299;28;20138;-64
2021/10/03 12:10:50;;;;;;;;;;;21.80;67.50;;;;;;5052806;28;19928;-63
2021/10/03 12:13:17;;;;;;;;;;;21.80;67.30;;;;;;5060678;28;19920;-64
2021/10/03 12:16:17;;;;;;;;;;;21.90;66.80;;;;;;5047928;28;19926;-65
2021/10/03 12:18:43;;;;;;;;;;;21.90;66.40;;;;;;5061075;28;19916;-63
2021/10/03 12:21:17;;;;;;;;;;;22.00;66.60;;;;;;5064065;28;19935;-61
2021/10/03 12:23:53;;;;;;;;;;;22.00;66.30;;;;;;5045304;28;20023;-64
2021/10/03 12:26:20;;;;;;;;;;;22.10;66.20;;;;;;5050572;28;19966;-64
2021/10/03 12:29:09;;;;;;;;;;;22.10;66.10;;;;;;5045570;28;19952;-64
2021/10/03 12:34:27;;;;;;;;;;;22.10;66.30;;;;;;5089375;27;19931;-73
2021/10/03 12:36:53;;;;;;;;;;;22.10;66.20;;;;;;5092744;27;20314;-73
2021/10/03 12:39:18;;;;;;;;;;;22.20;65.40;;;;;;5075479;27;19915;-73
2021/10/03 12:41:44;;;;;;;;;;;22.20;65.00;;;;;;5092166;27;19991;-73
2021/10/03 12:44:09;;;;;;;;;;;22.30;64.70;;;;;;5073070;28;20011;-73
2021/10/03 12:46:35;;;;;;;;;;;22.30;65.00;;;;;;5095019;27;20192;-73
2021/10/03 12:49:01;;;;;;;;;;;22.30;65.00;;;;;;5073936;27;19915;-73
2021/10/03 12:51:26;;;;;;;;;;;22.30;64.80;;;;;;5093247;27;19918;-73
2021/10/03 12:53:52;;;;;;;;;;;22.30;65.00;;;;;;5090625;27;20358;-73
2021/10/03 12:56:17;;;;;;;;;;;22.30;64.70;;;;;;5094600;27;20006;-74
2021/10/03 12:58:43;;;;;;;;;;;22.30;64.80;;;;;;5098975;27;20035;-74
2021/10/03 13:01:09;;;;;;;;;;;22.40;64.70;;;;;;5094077;27;19965;-74
2021/10/03 13:03:38;;;;;;;;;;;22.30;64.70;;;;;;5104350;28;19920;-73
2021/10/03 13:06:04;;;;;;;;;;;22.40;64.60;;;;;;5083594;28;19920;-73
2021/10/03 13:08:29;;;;;;;;;;;22.40;65.00;;;;;;5088761;27;21009;-74
2021/10/03 13:10:54;;;;;;;;;;;22.30;64.40;;;;;;5091262;27;20492;-74
2021/10/03 13:13:20;;;;;;;;;;;22.40;64.40;;;;;;5077019;28;20340;-73
2021/10/03 13:15:45;;;;;;;;;;;22.40;64.30;;;;;;5101970;28;20047;-74
2021/10/03 13:18:11;;;;;;;;;;;22.40;64.40;;;;;;5092349;27;20042;-74
2021/10/03 13:20:36;;;;;;;;;;;22.40;64.40;;;;;;5100638;27;19923;-73
2021/10/03 13:23:02;;;;;;;;;;;22.50;64.00;;;;;;5077122;28;20022;-73
2021/10/03 13:25:27;;;;;;;;;;;22.50;64.20;;;;;;5078089;28;19912;-77
2021/10/03 13:27:53;;;;;;;;;;;22.40;64.20;;;;;;5089424;27;20299;-74
2021/10/03 13:30:19;;;;;;;;;;;22.40;64.90;;;;;;5095687;27;20259;-70
2021/10/03 13:32:45;;;;;;;;;;;22.40;64.30;;;;;;5069636;28;19941;-69
2021/10/03 13:35:11;;;;;;;;;;;22.40;64.30;;;;;;5092206;27;21555;-69
2021/10/03 13:37:36;;;;;;;;;;;22.40;63.70;;;;;;5073043;27;19947;-71
2021/10/03 13:40:02;;;;;;;;;;;22.40;64.00;;;;;;5086602;27;20329;-70
2021/10/03 13:42:28;;;;;;;;;;;22.40;63.80;;;;;;5072052;27;20011;-69
2021/10/03 13:44:53;;;;;;;;;;;22.40;63.40;;;;;;5074584;28;20339;-71
2021/10/03 13:47:19;;;;;;;;;;;22.40;63.50;;;;;;5091251;27;20014;-70
2021/10/03 13:49:44;;;;;;;;;;;22.50;63.60;;;;;;5075002;28;19916;-71
2021/10/03 13:52:10;;;;;;;;;;;22.50;63.90;;;;;;5102434;28;19924;-72
2021/10/03 13:54:35;;;;;;;;;;;22.50;64.10;;;;;;5086728;28;19916;-71
2021/10/03 13:57:01;;;;;;;;;;;22.40;64.20;;;;;;5106072;28;19977;-71
2021/10/03 13:59:26;;;;;;;;;;;22.40;64.30;;;;;;5104965;27;19919;-71
2021/10/03 14:01:52;;;;;;;;;;;22.40;64.50;;;;;;5105416;28;19937;-71
2021/10/03 14:04:18;;;;;;;;;;;22.30;64.30;;;;;;5105020;28;20342;-70
2021/10/03 14:06:43;;;;;;;;;;;22.40;64.50;;;;;;5104362;28;19942;-70
2021/10/03 14:09:09;;;;;;;;;;;22.30;64.40;;;;;;5105999;28;20294;-73
2021/10/03 14:11:34;;;;;;;;;;;22.40;64.50;;;;;;5086509;28;20010;-72
2021/10/03 14:14:00;;;;;;;;;;;22.30;64.50;;;;;;5106809;28;19923;-72
2021/10/03 14:16:25;;;;;;;;;;;22.30;64.00;;;;;;5108715;28;19938;-72
2021/10/03 14:18:50;;;;;;;;;;;22.40;64.10;;;;;;5105306;28;19912;-71
2021/10/03 14:21:16;;;;;;;;;;;22.40;64.00;;;;;;5107064;28;20002;-72